Time;durP1;ratioP1;P1;durP2;ratioP2;P2;SDS_P1;SDS_P2;PMS_P1;PMS_P2;Temp;Humidity;BMP_temperature;BMP_pressure;BME280_temperature;BME280_humidity;BME280_pressure;Samples;Min_cycle;Max_cycle;Signal;HPM_P1;HPM_P2
2023/01/19 00:00:45;;;;;;;17.90;11.40;;;-6.30;99.90;;;;;;4996846;28;20187;-77
2023/01/19 00:03:14;;;;;;;17.33;12.10;;;-6.30;99.90;;;;;;4995907;28;20179;-77
2023/01/19 00:05:42;;;;;;;21.13;12.93;;;-6.50;99.90;;;;;;5014072;28;20179;-77
2023/01/19 00:08:14;;;;;;;23.43;13.10;;;-6.50;99.90;;;;;;5013541;28;20175;-77
2023/01/19 00:10:45;;;;;;;16.83;11.23;;;-6.50;99.90;;;;;;5013810;28;20266;-77
2023/01/19 00:13:11;;;;;;;17.73;11.23;;;-6.40;99.90;;;;;;5013294;28;20310;-77
2023/01/19 00:15:37;;;;;;;17.27;11.40;;;-6.40;99.90;;;;;;4995740;28;20206;-77
2023/01/19 00:18:03;;;;;;;20.50;10.93;;;-6.50;99.90;;;;;;4995888;28;20179;-77
2023/01/19 00:20:30;;;;;;;19.43;12.17;;;-6.50;99.90;;;;;;4996550;28;20180;-77
2023/01/19 00:22:56;;;;;;;26.10;12.30;;;-6.50;99.90;;;;;;4995683;28;20183;-77
2023/01/19 00:25:22;;;;;;;20.60;11.23;;;-6.30;99.90;;;;;;5013552;28;20179;-77
2023/01/19 00:27:48;;;;;;;18.43;11.33;;;-6.40;99.90;;;;;;4998402;28;20226;-77
2023/01/19 00:30:14;;;;;;;21.67;11.43;;;-6.50;99.90;;;;;;4999880;28;20529;-77
2023/01/19 00:32:40;;;;;;;20.90;11.20;;;-6.50;99.90;;;;;;4999958;28;20187;-77
2023/01/19 00:35:06;;;;;;;18.23;10.60;;;-6.50;99.90;;;;;;5016792;28;20221;-77
2023/01/19 00:37:31;;;;;;;17.90;10.67;;;-6.40;99.90;;;;;;4999494;28;20198;-77
2023/01/19 00:39:57;;;;;;;16.57;10.00;;;-6.50;99.90;;;;;;4999297;28;20171;-77
2023/01/19 00:42:43;;;;;;;16.13;10.30;;;-6.40;99.90;;;;;;4999280;28;20638;-77
2023/01/19 00:48:30;;;;;;;18.13;10.37;;;-6.20;99.90;;;;;;5016772;28;20632;-77
2023/01/19 00:50:56;;;;;;;17.33;11.57;;;-6.20;99.90;;;;;;4999179;28;20183;-77
2023/01/19 00:53:21;;;;;;;20.50;12.43;;;-6.20;99.90;;;;;;5016885;28;20204;-77
2023/01/19 00:55:47;;;;;;;19.73;12.23;;;-6.20;99.90;;;;;;4999029;28;20199;-77
2023/01/19 00:58:12;;;;;;;25.13;12.60;;;-6.30;99.90;;;;;;4999206;28;20194;-77
2023/01/19 01:00:38;;;;;;;22.07;12.13;;;-6.30;99.90;;;;;;5016543;28;20195;-77
2023/01/19 01:03:04;;;;;;;23.00;12.20;;;-6.40;99.90;;;;;;4998928;28;20187;-77
2023/01/19 01:05:29;;;;;;;19.83;12.27;;;-6.60;99.90;;;;;;4999225;28;20199;-77
2023/01/19 01:07:55;;;;;;;20.57;12.00;;;-6.80;99.90;;;;;;4998910;28;20238;-77
2023/01/19 01:10:24;;;;;;;17.83;11.27;;;-6.90;99.90;;;;;;4999890;28;20191;-77
2023/01/19 01:12:50;;;;;;;18.87;11.33;;;-7.00;99.90;;;;;;4998664;28;20191;-77
2023/01/19 01:15:18;;;;;;;19.47;11.43;;;-7.00;99.90;;;;;;4998659;28;20214;-77
2023/01/19 01:17:46;;;;;;;18.00;11.17;;;-7.10;99.90;;;;;;4999469;28;20186;-77
2023/01/19 01:20:33;;;;;;;24.63;12.13;;;-7.10;99.90;;;;;;4998876;28;20193;-77
2023/01/19 01:22:59;;;;;;;20.87;11.10;;;-7.00;99.90;;;;;;4999342;28;20171;-77
2023/01/19 01:25:26;;;;;;;22.03;12.00;;;-7.20;99.90;;;;;;5016032;28;20245;-77
2023/01/19 01:27:52;;;;;;;27.37;13.37;;;-7.20;99.90;;;;;;4998461;28;20187;-77
2023/01/19 01:30:18;;;;;;;21.73;12.40;;;-7.00;99.90;;;;;;5015888;28;20180;-77
2023/01/19 01:32:44;;;;;;;22.47;12.00;;;-6.80;99.90;;;;;;4998377;28;20179;-77
2023/01/19 01:35:10;;;;;;;20.87;11.00;;;-6.80;99.90;;;;;;4998227;28;20343;-77
2023/01/19 01:37:36;;;;;;;22.80;11.27;;;-6.70;99.90;;;;;;4998373;28;20251;-77
2023/01/19 01:40:03;;;;;;;15.40;9.70;;;-6.80;99.90;;;;;;5015681;28;20180;-77
2023/01/19 01:42:30;;;;;;;14.73;10.00;;;-6.80;99.90;;;;;;5015594;28;20210;-77
2023/01/19 01:44:59;;;;;;;16.13;10.53;;;-6.90;99.90;;;;;;4998085;28;20238;-77
2023/01/19 01:47:36;;;;;;;19.13;10.53;;;-7.00;99.90;;;;;;4998061;28;20630;-77
2023/01/19 01:50:19;;;;;;;18.77;11.10;;;-6.90;99.90;;;;;;5015576;28;20175;-77
2023/01/19 01:52:58;;;;;;;14.73;10.43;;;-7.00;99.90;;;;;;4998740;28;20172;-77
2023/01/19 01:55:25;;;;;;;20.33;10.97;;;-7.00;99.90;;;;;;4997907;28;20195;-77
2023/01/19 01:57:57;;;;;;;16.23;11.00;;;-6.80;99.90;;;;;;4998760;28;20180;-77
2023/01/19 02:00:24;;;;;;;22.50;12.30;;;-6.70;99.90;;;;;;4997898;28;20199;-77
2023/01/19 02:02:50;;;;;;;16.40;11.20;;;-6.80;99.90;;;;;;4998639;28;20183;-77
2023/01/19 02:05:36;;;;;;;19.80;12.17;;;-6.80;99.90;;;;;;5015298;28;20196;-77
2023/01/19 02:14:26;;;;;;;17.93;10.47;;;-6.80;99.90;;;;;;5015132;28;20723;-77
2023/01/19 02:16:52;;;;;;;18.03;11.80;;;-6.90;99.90;;;;;;4997452;28;20246;-77
2023/01/19 02:19:34;;;;;;;18.07;12.37;;;-7.00;99.90;;;;;;5015078;28;20183;-77
2023/01/19 02:22:30;;;;;;;21.30;13.03;;;-7.10;99.90;;;;;;4997430;28;20175;-77
2023/01/19 02:24:56;;;;;;;22.53;11.37;;;-7.10;99.90;;;;;;4997339;28;20253;-77
2023/01/19 02:27:22;;;;;;;16.33;11.33;;;-7.00;99.90;;;;;;5015098;28;20183;-77
2023/01/19 02:29:47;;;;;;;18.50;11.27;;;-7.00;99.90;;;;;;4997383;28;20209;-77
2023/01/19 02:32:13;;;;;;;18.50;11.00;;;-7.00;99.90;;;;;;5015029;28;20183;-77
2023/01/19 02:34:39;;;;;;;21.00;11.20;;;-6.90;99.90;;;;;;4997083;28;20246;-77
2023/01/19 02:37:11;;;;;;;21.20;11.80;;;-6.90;99.90;;;;;;4996966;28;20246;-77
2023/01/19 02:39:41;;;;;;;23.30;11.17;;;-6.80;99.90;;;;;;4997107;28;20238;-77
2023/01/19 02:42:21;;;;;;;15.73;10.53;;;-6.80;99.90;;;;;;5014982;28;20186;-77
2023/01/19 02:44:49;;;;;;;17.93;11.17;;;-6.80;99.90;;;;;;4997491;28;20207;-76
2023/01/19 02:47:15;;;;;;;17.60;10.87;;;-6.80;99.90;;;;;;4996962;28;20202;-76
2023/01/19 02:49:41;;;;;;;15.77;11.00;;;-6.90;99.90;;;;;;5014039;28;20191;-76
2023/01/19 02:52:14;;;;;;;17.30;10.67;;;-6.80;99.90;;;;;;4997189;28;20183;-76
2023/01/19 02:55:07;;;;;;;19.13;11.33;;;-6.90;99.90;;;;;;5014325;28;20255;-76
2023/01/19 02:58:10;;;;;;;19.87;12.03;;;-6.80;99.90;;;;;;5014639;28;20195;-76
2023/01/19 03:00:56;;;;;;;18.20;12.57;;;-6.80;99.90;;;;;;5014524;28;20262;-76
2023/01/19 03:03:31;;;;;;;16.23;11.33;;;-6.70;99.90;;;;;;5014158;28;20195;-76
2023/01/19 03:06:06;;;;;;;18.17;11.20;;;-6.80;99.90;;;;;;4996740;28;20175;-76
2023/01/19 03:08:40;;;;;;;19.00;11.57;;;-6.90;99.90;;;;;;5014472;28;20251;-76
2023/01/19 03:14:23;;;;;;;22.43;11.47;;;-7.00;99.90;;;;;;5014266;28;20238;-76
2023/01/19 03:16:58;;;;;;;19.73;11.90;;;-7.10;99.90;;;;;;4996407;28;20210;-76
2023/01/19 03:19:33;;;;;;;21.10;12.43;;;-7.10;99.90;;;;;;4996481;28;20210;-76
2023/01/19 03:22:11;;;;;;;21.93;12.87;;;-7.10;99.90;;;;;;5012760;28;20644;-76
2023/01/19 03:24:42;;;;;;;20.47;11.90;;;-7.00;99.90;;;;;;4997145;28;20253;-76
2023/01/19 03:27:30;;;;;;;16.93;11.50;;;-7.00;99.90;;;;;;5014781;28;20217;-76
2023/01/19 03:30:00;;;;;;;16.27;11.40;;;-6.90;99.90;;;;;;4996434;28;20198;-76
2023/01/19 03:32:30;;;;;;;17.80;12.30;;;-6.80;99.90;;;;;;4996330;28;20661;-76
2023/01/19 03:34:59;;;;;;;18.90;11.90;;;-6.70;99.90;;;;;;5014096;28;20302;-76
2023/01/19 03:37:28;;;;;;;16.73;11.33;;;-6.70;99.90;;;;;;4996101;28;20191;-76
2023/01/19 03:39:55;;;;;;;18.20;12.17;;;-6.70;99.90;;;;;;4997037;28;20188;-76
2023/01/19 03:42:22;;;;;;;19.60;12.90;;;-6.60;99.90;;;;;;4996526;28;20198;-76
2023/01/19 03:44:50;;;;;;;18.33;12.17;;;-6.70;99.90;;;;;;4995960;28;20196;-76
2023/01/19 03:47:17;;;;;;;16.80;11.77;;;-6.70;99.90;;;;;;4996093;28;20182;-76
2023/01/19 03:49:45;;;;;;;21.40;12.00;;;-6.80;99.90;;;;;;4995954;28;20179;-76
2023/01/19 03:52:11;;;;;;;19.43;12.97;;;-6.90;99.90;;;;;;4996320;28;20195;-76
2023/01/19 03:54:37;;;;;;;18.77;12.70;;;-6.90;99.90;;;;;;4996695;28;20199;-76
2023/01/19 03:57:03;;;;;;;19.80;12.63;;;-6.90;99.90;;;;;;4995995;28;20183;-76
2023/01/19 03:59:28;;;;;;;22.80;12.30;;;-6.90;99.90;;;;;;5013564;28;20182;-76
2023/01/19 04:01:54;;;;;;;21.47;13.93;;;-6.90;99.90;;;;;;4997958;28;20183;-76
2023/01/19 04:04:20;;;;;;;21.90;14.13;;;-6.70;99.90;;;;;;5000234;28;20245;-76
2023/01/19 04:10:11;;;;;;;20.70;12.57;;;-6.70;99.90;;;;;;5017520;28;20162;-76
2023/01/19 04:12:38;;;;;;;16.87;12.07;;;-6.60;99.90;;;;;;4999910;28;20183;-76
2023/01/19 04:15:04;;;;;;;20.70;12.33;;;-6.60;99.90;;;;;;5017196;28;20215;-76
2023/01/19 04:17:30;;;;;;;18.67;11.97;;;-6.60;99.90;;;;;;5000078;28;20570;-76
2023/01/19 04:19:56;;;;;;;20.50;13.30;;;-6.70;99.90;;;;;;5000050;28;20179;-76
2023/01/19 04:22:21;;;;;;;19.77;12.13;;;-6.80;99.90;;;;;;4999675;28;20190;-75
2023/01/19 04:24:47;;;;;;;19.17;13.83;;;-7.00;99.90;;;;;;4999879;28;20203;-75
2023/01/19 04:27:15;;;;;;;20.87;14.20;;;-7.00;99.90;;;;;;5000076;28;20179;-75
2023/01/19 04:29:41;;;;;;;37.83;24.83;;;-6.90;99.90;;;;;;5017111;28;20306;-75
2023/01/19 04:32:07;;;;;;;51.93;36.53;;;-6.90;99.90;;;;;;5000518;28;20183;-75
2023/01/19 04:34:32;;;;;;;48.57;33.20;;;-6.80;99.90;;;;;;5017090;28;20206;-75
2023/01/19 04:36:58;;;;;;;23.77;16.37;;;-6.70;99.90;;;;;;4999217;28;20333;-75
2023/01/19 04:39:23;;;;;;;19.73;14.27;;;-6.60;99.90;;;;;;4999512;28;20180;-75
2023/01/19 04:41:50;;;;;;;21.27;14.10;;;-6.50;99.90;;;;;;4999696;28;20645;-75
2023/01/19 04:44:16;;;;;;;24.27;14.07;;;-6.40;99.90;;;;;;4999620;28;20206;-75
2023/01/19 04:46:42;;;;;;;19.13;13.63;;;-6.20;99.90;;;;;;4999287;28;20184;-75
2023/01/19 04:49:08;;;;;;;23.00;14.43;;;-6.00;99.90;;;;;;5017002;28;20172;-75
2023/01/19 04:51:34;;;;;;;22.60;14.30;;;-5.80;99.90;;;;;;4999118;28;20234;-75
2023/01/19 04:54:00;;;;;;;19.87;13.33;;;-5.70;99.90;;;;;;5016840;28;20207;-75
2023/01/19 04:56:26;;;;;;;19.00;13.83;;;-5.60;99.90;;;;;;5016830;28;20211;-75
2023/01/19 04:58:52;;;;;;;23.70;14.03;;;-5.50;99.90;;;;;;4999381;28;20176;-75
2023/01/19 05:01:18;;;;;;;19.07;13.17;;;-5.40;99.90;;;;;;4999304;28;20206;-75
2023/01/19 05:03:43;;;;;;;22.50;14.43;;;-5.30;99.90;;;;;;5016647;28;20215;-75
2023/01/19 05:06:57;;;;;;;20.40;14.20;;;-5.10;99.90;;;;;;4998915;28;20218;-75
2023/01/19 05:09:22;;;;;;;20.07;14.07;;;-5.00;99.90;;;;;;5016773;28;20171;-75
2023/01/19 05:11:48;;;;;;;23.13;15.07;;;-4.90;99.90;;;;;;4999666;28;20187;-75
2023/01/19 05:14:13;;;;;;;22.77;14.53;;;-4.90;99.90;;;;;;5015553;28;20213;-75
2023/01/19 05:16:39;;;;;;;20.60;14.50;;;-4.70;99.90;;;;;;4998911;28;20239;-75
2023/01/19 05:19:04;;;;;;;22.70;15.53;;;-4.60;99.90;;;;;;4998718;28;20183;-75
2023/01/19 05:21:30;;;;;;;22.80;13.90;;;-4.40;99.90;;;;;;4998630;28;20184;-75
2023/01/19 05:23:55;;;;;;;19.93;14.80;;;-4.30;99.90;;;;;;4998513;28;20242;-75
2023/01/19 05:26:21;;;;;;;21.50;14.53;;;-4.20;99.90;;;;;;4998978;28;20179;-75
2023/01/19 05:28:47;;;;;;;19.50;14.47;;;-4.20;99.90;;;;;;4999341;28;20176;-75
2023/01/19 05:31:12;;;;;;;20.77;14.93;;;-4.00;99.90;;;;;;5016075;28;20175;-75
2023/01/19 05:33:38;;;;;;;18.67;15.20;;;-3.90;99.90;;;;;;5015828;28;20200;-75
2023/01/19 05:36:03;;;;;;;23.40;16.03;;;-3.80;99.90;;;;;;5015833;28;20207;-75
2023/01/19 05:38:29;;;;;;;27.13;19.00;;;-3.70;99.90;;;;;;4998444;28;20287;-76
2023/01/19 05:40:57;;;;;;;25.63;17.50;;;-3.60;99.90;;;;;;4998926;28;20180;-77
2023/01/19 05:43:26;;;;;;;23.27;16.00;;;-3.60;99.90;;;;;;5015970;28;20207;-76
2023/01/19 05:45:52;;;;;;;20.60;14.50;;;-3.50;99.90;;;;;;4998693;28;20194;-76
2023/01/19 05:48:17;;;;;;;20.77;14.83;;;-3.40;99.90;;;;;;4998624;28;20254;-76
2023/01/19 05:50:43;;;;;;;23.73;13.87;;;-3.30;99.90;;;;;;4998097;28;20190;-76
2023/01/19 05:53:08;;;;;;;21.13;14.40;;;-3.20;99.90;;;;;;4998003;28;20183;-76
2023/01/19 05:55:34;;;;;;;19.80;14.73;;;-3.10;99.90;;;;;;4998275;28;20235;-76
2023/01/19 05:58:00;;;;;;;21.93;14.43;;;-3.10;99.90;;;;;;5015803;28;20210;-76
2023/01/19 06:00:26;;;;;;;21.73;14.30;;;-3.00;99.90;;;;;;4997942;28;20180;-76
2023/01/19 06:02:52;;;;;;;20.00;15.40;;;-3.00;99.90;;;;;;4997865;28;20180;-77
2023/01/19 06:05:18;;;;;;;22.90;15.60;;;-3.00;99.90;;;;;;5015273;28;20249;-76
2023/01/19 06:07:43;;;;;;;22.03;14.93;;;-3.10;99.90;;;;;;4998863;28;20180;-76
2023/01/19 06:10:10;;;;;;;19.47;14.13;;;-3.10;99.90;;;;;;5015280;28;20234;-77
2023/01/19 06:12:37;;;;;;;20.00;15.07;;;-3.10;99.90;;;;;;4998660;28;20211;-79
2023/01/19 06:15:04;;;;;;;18.03;13.73;;;-3.00;99.90;;;;;;5015086;28;20250;-76
2023/01/19 06:17:31;;;;;;;18.67;14.53;;;-3.00;99.90;;;;;;4997898;28;20557;-76
2023/01/19 06:19:57;;;;;;;21.07;14.13;;;-3.00;99.90;;;;;;4997539;28;20262;-77
2023/01/19 06:22:26;;;;;;;18.60;13.40;;;-2.90;99.90;;;;;;4997495;28;20265;-77
2023/01/19 06:24:51;;;;;;;19.13;14.10;;;-2.90;99.90;;;;;;4996327;28;20211;-77
2023/01/19 06:27:17;;;;;;;24.23;14.97;;;-2.80;99.90;;;;;;5014951;28;20186;-81
2023/01/19 06:29:42;;;;;;;21.33;14.43;;;-2.80;99.90;;;;;;4997426;28;20554;-76
2023/01/19 06:32:08;;;;;;;18.87;13.47;;;-2.80;99.90;;;;;;4997843;28;20180;-76
2023/01/19 06:34:33;;;;;;;20.57;13.27;;;-2.70;99.90;;;;;;4997652;28;20215;-77
2023/01/19 06:36:59;;;;;;;17.77;13.60;;;-2.60;99.90;;;;;;5014638;28;20298;-76
2023/01/19 06:39:24;;;;;;;20.63;13.50;;;-2.60;99.90;;;;;;5015048;28;20198;-76
2023/01/19 06:41:50;;;;;;;86.27;30.67;;;-2.60;99.90;;;;;;4997534;28;20184;-76
2023/01/19 06:44:16;;;;;;;37.97;18.43;;;-2.50;99.90;;;;;;4997004;28;20235;-76
2023/01/19 06:46:41;;;;;;;24.50;15.63;;;-2.40;99.90;;;;;;5015143;28;20179;-77
2023/01/19 06:49:07;;;;;;;22.27;14.27;;;-2.40;99.90;;;;;;4997114;28;20234;-77
2023/01/19 06:51:33;;;;;;;18.40;13.50;;;-2.40;99.90;;;;;;4996975;28;20180;-76
2023/01/19 06:53:58;;;;;;;19.83;14.10;;;-2.50;99.90;;;;;;4996765;28;20200;-77
2023/01/19 06:56:24;;;;;;;21.23;14.70;;;-2.50;99.90;;;;;;4996933;28;20323;-76
2023/01/19 06:58:51;;;;;;;21.20;14.23;;;-2.50;99.90;;;;;;5014735;28;20179;-76
2023/01/19 07:01:17;;;;;;;19.50;14.73;;;-2.50;99.90;;;;;;4997875;28;20172;-76
2023/01/19 07:03:43;;;;;;;22.67;15.23;;;-2.50;99.90;;;;;;4996741;28;20234;-76
2023/01/19 07:06:09;;;;;;;20.67;15.57;;;-2.60;99.90;;;;;;4997702;28;20234;-76
2023/01/19 07:08:35;;;;;;;20.17;15.27;;;-2.50;99.90;;;;;;4996783;28;20180;-76
2023/01/19 07:11:05;;;;;;;19.30;14.80;;;-2.60;99.90;;;;;;4996665;28;20271;-76
2023/01/19 07:13:32;;;;;;;20.87;15.50;;;-2.50;99.90;;;;;;4996608;28;20203;-76
2023/01/19 07:15:57;;;;;;;20.13;14.83;;;-2.50;99.90;;;;;;4996558;28;20294;-76
2023/01/19 07:18:23;;;;;;;19.47;14.47;;;-2.50;99.90;;;;;;5014667;28;20207;-76
2023/01/19 07:20:48;;;;;;;18.33;15.03;;;-2.40;99.90;;;;;;4996792;28;20175;-76
2023/01/19 07:23:15;;;;;;;21.83;14.17;;;-2.40;99.90;;;;;;4996700;28;20229;-76
2023/01/19 07:25:44;;;;;;;21.13;14.37;;;-2.30;99.90;;;;;;4997308;28;20322;-76
2023/01/19 07:28:11;;;;;;;20.93;15.37;;;-2.40;99.90;;;;;;4996351;28;20179;-76
2023/01/19 07:30:37;;;;;;;20.00;14.87;;;-2.30;99.90;;;;;;4996934;28;20607;-76
2023/01/19 07:33:02;;;;;;;20.80;15.23;;;-2.30;99.90;;;;;;5014099;28;20207;-76
2023/01/19 07:35:28;;;;;;;19.97;15.50;;;-2.30;99.90;;;;;;4996039;28;20242;-76
2023/01/19 07:37:54;;;;;;;22.37;15.33;;;-2.40;99.90;;;;;;4996084;28;20195;-76
2023/01/19 07:40:20;;;;;;;18.73;14.87;;;-2.30;99.90;;;;;;4996545;28;20245;-76
2023/01/19 07:42:50;;;;;;;21.03;14.57;;;-2.20;99.90;;;;;;4997299;28;20194;-76
2023/01/19 07:45:17;;;;;;;24.90;15.87;;;-2.20;99.90;;;;;;4996209;28;20203;-76
2023/01/19 07:47:44;;;;;;;20.57;14.63;;;-2.10;99.90;;;;;;4996490;28;20290;-76
2023/01/19 07:50:12;;;;;;;19.43;14.67;;;-2.00;99.90;;;;;;4997236;28;20210;-77
2023/01/19 07:52:37;;;;;;;20.53;14.60;;;-2.10;99.90;;;;;;4996448;28;20179;-76
2023/01/19 07:55:03;;;;;;;22.57;16.63;;;-2.10;99.90;;;;;;4996213;28;20262;-76
2023/01/19 07:57:29;;;;;;;23.30;15.70;;;-2.00;99.90;;;;;;4996315;28;20615;-77
2023/01/19 07:59:54;;;;;;;21.13;15.43;;;-2.00;99.90;;;;;;4996123;28;20180;-77
2023/01/19 08:02:20;;;;;;;18.93;15.60;;;-2.00;99.90;;;;;;4996067;28;20634;-77
2023/01/19 08:04:48;;;;;;;20.97;16.50;;;-2.10;99.90;;;;;;5013461;28;20200;-77
2023/01/19 08:07:14;;;;;;;21.67;16.30;;;-2.00;99.90;;;;;;4996818;28;20225;-77
2023/01/19 08:09:40;;;;;;;20.87;16.03;;;-2.00;99.90;;;;;;5013471;28;20180;-77
2023/01/19 08:12:05;;;;;;;21.97;16.03;;;-2.00;99.90;;;;;;5013789;28;20270;-77
2023/01/19 08:14:31;;;;;;;22.70;15.90;;;-1.80;99.90;;;;;;4996952;28;20282;-77
2023/01/19 08:17:01;;;;;;;20.90;15.07;;;-1.80;99.90;;;;;;4995722;28;20249;-77
2023/01/19 08:19:27;;;;;;;23.10;16.27;;;-1.70;99.90;;;;;;4996171;28;20172;-77
2023/01/19 08:21:53;;;;;;;20.80;16.07;;;-1.60;99.90;;;;;;4996284;28;20203;-77
2023/01/19 08:24:21;;;;;;;20.07;15.47;;;-1.70;99.90;;;;;;4995760;28;20196;-77
2023/01/19 08:26:47;;;;;;;23.90;16.90;;;-1.70;99.90;;;;;;5013383;28;20615;-77
2023/01/19 08:29:13;;;;;;;21.40;15.87;;;-1.70;99.90;;;;;;4995843;28;20176;-77
2023/01/19 08:31:39;;;;;;;19.10;15.27;;;-1.60;99.90;;;;;;4996056;28;20183;-77
2023/01/19 08:34:04;;;;;;;18.90;14.57;;;-1.50;99.90;;;;;;4995988;28;20569;-77
2023/01/19 08:36:30;;;;;;;19.53;15.50;;;-1.30;99.90;;;;;;4995687;28;20294;-77
2023/01/19 08:38:56;;;;;;;20.70;15.87;;;-1.30;99.90;;;;;;5013703;28;20249;-77
2023/01/19 08:41:21;;;;;;;19.60;15.80;;;-1.30;99.90;;;;;;4995886;28;20267;-77
2023/01/19 08:43:48;;;;;;;21.50;15.17;;;-1.20;99.90;;;;;;5012110;28;20290;-77
2023/01/19 08:46:16;;;;;;;18.47;14.37;;;-1.20;99.90;;;;;;5013522;28;20179;-77
2023/01/19 08:48:44;;;;;;;21.73;15.53;;;-1.00;99.90;;;;;;5014742;28;20178;-77
2023/01/19 08:51:11;;;;;;;21.20;15.50;;;-1.00;99.90;;;;;;5016774;28;20174;-77
2023/01/19 08:53:37;;;;;;;19.40;15.10;;;-0.90;99.90;;;;;;4999214;28;20677;-77
2023/01/19 08:56:03;;;;;;;20.27;15.37;;;-0.80;99.90;;;;;;4999381;28;20207;-77
2023/01/19 08:58:28;;;;;;;19.20;15.13;;;-0.80;99.90;;;;;;4999193;28;20218;-77
2023/01/19 09:00:54;;;;;;;20.17;15.30;;;-0.80;99.90;;;;;;4999159;28;20187;-77
2023/01/19 09:03:21;;;;;;;20.00;14.57;;;-0.60;99.90;;;;;;5016762;28;20696;-77
2023/01/19 09:05:47;;;;;;;19.57;14.70;;;-0.50;99.90;;;;;;4999934;28;20210;-77
2023/01/19 09:08:14;;;;;;;20.57;14.83;;;-0.50;99.90;;;;;;4998895;28;20545;-77
2023/01/19 09:10:45;;;;;;;18.77;14.53;;;-0.50;99.90;;;;;;4998889;28;20180;-77
2023/01/19 09:13:11;;;;;;;17.10;14.87;;;-0.30;99.90;;;;;;5016734;28;20167;-77
2023/01/19 09:15:38;;;;;;;18.70;14.83;;;-0.20;99.90;;;;;;4999642;28;20204;-77
2023/01/19 09:18:06;;;;;;;18.97;15.73;;;-0.30;99.90;;;;;;5016257;28;20176;-77
2023/01/19 09:20:33;;;;;;;17.57;14.23;;;-0.20;99.90;;;;;;4998700;28;20180;-77
2023/01/19 09:22:59;;;;;;;22.50;15.00;;;-0.10;99.90;;;;;;4999413;28;20178;-77
2023/01/19 09:25:25;;;;;;;22.10;15.20;;;0.10;99.90;;;;;;4999068;28;20524;-77
2023/01/19 09:27:51;;;;;;;18.57;14.40;;;0.00;99.90;;;;;;5016399;28;20179;-77
2023/01/19 09:30:18;;;;;;;21.47;15.40;;;0.10;99.90;;;;;;4998467;28;20176;-77
2023/01/19 09:32:44;;;;;;;39.33;19.33;;;0.10;99.90;;;;;;5015971;28;20178;-77
2023/01/19 09:35:09;;;;;;;25.60;16.90;;;0.30;99.90;;;;;;4998744;28;20219;-77
2023/01/19 09:37:35;;;;;;;20.23;14.87;;;0.50;99.90;;;;;;4998249;28;20287;-77
2023/01/19 09:40:00;;;;;;;18.67;14.40;;;0.60;99.90;;;;;;4998385;28;20211;-77
2023/01/19 09:42:47;;;;;;;17.77;14.47;;;0.70;99.90;;;;;;4998314;28;20581;-77
2023/01/19 09:45:50;;;;;;;20.67;14.40;;;0.80;99.90;;;;;;4998607;28;20210;-77
2023/01/19 09:48:41;;;;;;;17.47;13.43;;;0.80;99.90;;;;;;4998982;28;20183;-77
2023/01/19 09:51:32;;;;;;;15.37;13.03;;;0.90;99.90;;;;;;5015993;28;20175;-77
2023/01/19 09:54:11;;;;;;;19.43;16.57;;;0.90;99.90;;;;;;5015590;28;20199;-77
2023/01/19 09:56:37;;;;;;;17.47;12.93;;;1.00;99.90;;;;;;5015839;28;20282;-77
2023/01/19 09:59:18;;;;;;;18.53;13.47;;;1.10;99.90;;;;;;4998054;28;20184;-77
2023/01/19 10:02:11;;;;;;;17.73;13.13;;;1.00;99.90;;;;;;5015766;28;20163;-77
2023/01/19 10:04:59;;;;;;;15.73;12.50;;;1.10;99.90;;;;;;5015416;28;20204;-77
2023/01/19 10:07:53;;;;;;;16.33;12.47;;;1.20;99.90;;;;;;4998133;28;20176;-77
2023/01/19 10:10:21;;;;;;;15.73;12.87;;;1.30;99.90;;;;;;4997807;28;20283;-77
2023/01/19 10:13:01;;;;;;;14.47;12.00;;;1.20;99.90;;;;;;4998312;28;20187;-77
2023/01/19 10:15:30;;;;;;;15.33;12.10;;;1.10;99.90;;;;;;4997673;28;20306;-77
2023/01/19 10:18:15;;;;;;;14.83;12.03;;;1.00;99.90;;;;;;4997625;28;20180;-77
2023/01/19 10:20:50;;;;;;;17.43;12.07;;;1.10;99.90;;;;;;4997644;28;20167;-77
2023/01/19 10:23:34;;;;;;;15.47;11.93;;;1.10;99.90;;;;;;5015134;28;20246;-77
2023/01/19 10:26:04;;;;;;;14.80;12.47;;;1.10;99.90;;;;;;4997504;28;20186;-77
2023/01/19 10:28:30;;;;;;;16.10;12.50;;;1.10;99.90;;;;;;4998386;28;20176;-77
2023/01/19 10:30:56;;;;;;;15.40;11.57;;;1.10;99.90;;;;;;4998204;28;20187;-77
2023/01/19 10:33:21;;;;;;;17.20;12.40;;;1.10;99.90;;;;;;4997360;28;20207;-77
2023/01/19 10:35:47;;;;;;;16.77;13.10;;;1.10;99.90;;;;;;5014770;28;20206;-77
2023/01/19 10:38:18;;;;;;;16.23;12.50;;;1.10;99.90;;;;;;4997645;28;20195;-77
2023/01/19 10:41:10;;;;;;;15.10;12.07;;;1.10;99.90;;;;;;4997211;28;20191;-77
2023/01/19 10:43:39;;;;;;;13.97;12.00;;;1.20;99.90;;;;;;5014694;28;20581;-77
2023/01/19 10:46:23;;;;;;;14.47;12.57;;;1.20;99.90;;;;;;4997128;28;20187;-77
2023/01/19 10:48:51;;;;;;;14.20;11.83;;;1.20;99.90;;;;;;4997997;28;20230;-77
2023/01/19 10:51:16;;;;;;;14.17;11.43;;;1.40;99.90;;;;;;5014854;28;20188;-77
2023/01/19 10:53:56;;;;;;;14.80;12.00;;;1.40;99.90;;;;;;5014441;28;20298;-77
2023/01/19 10:56:31;;;;;;;13.87;10.93;;;1.50;99.90;;;;;;4996854;28;20211;-77
2023/01/19 10:58:59;;;;;;;12.83;11.50;;;1.50;99.90;;;;;;4997720;28;20250;-77
2023/01/19 11:01:27;;;;;;;12.73;11.20;;;1.60;99.90;;;;;;4997198;28;20194;-77
2023/01/19 11:03:55;;;;;;;12.47;11.10;;;1.60;99.90;;;;;;5014376;28;20195;-77
2023/01/19 11:06:27;;;;;;;14.60;11.73;;;1.70;99.90;;;;;;4996725;28;20180;-77
2023/01/19 11:09:09;;;;;;;14.63;11.43;;;1.60;99.90;;;;;;4997132;28;20179;-77
2023/01/19 11:11:42;;;;;;;13.77;11.27;;;1.70;99.90;;;;;;5013954;28;20172;-77
2023/01/19 11:14:11;;;;;;;14.33;11.50;;;1.60;99.90;;;;;;4996660;28;20207;-77
2023/01/19 11:16:38;;;;;;;15.47;12.07;;;1.70;99.90;;;;;;4996540;28;20203;-77
2023/01/19 11:19:06;;;;;;;18.60;11.97;;;1.70;99.90;;;;;;4997391;28;20207;-77
2023/01/19 11:21:32;;;;;;;13.37;11.50;;;1.70;99.90;;;;;;5014085;28;20167;-77
2023/01/19 11:24:07;;;;;;;15.13;12.10;;;1.90;99.90;;;;;;4996474;28;20203;-77
2023/01/19 11:26:39;;;;;;;15.50;11.40;;;2.00;99.90;;;;;;5014067;28;20160;-77
2023/01/19 11:29:13;;;;;;;15.87;11.77;;;2.10;99.90;;;;;;4997320;28;20175;-77
2023/01/19 11:31:39;;;;;;;17.60;12.33;;;2.20;99.90;;;;;;4996911;28;20199;-77
2023/01/19 11:34:21;;;;;;;13.97;12.27;;;2.10;99.90;;;;;;5014124;28;20199;-77
2023/01/19 11:36:56;;;;;;;16.70;13.40;;;2.20;99.90;;;;;;4996126;28;20234;-77
2023/01/19 11:39:26;;;;;;;15.20;12.17;;;2.20;99.90;;;;;;5013935;28;20198;-77
2023/01/19 11:42:02;;;;;;;15.07;12.00;;;2.30;99.90;;;;;;5014140;28;20164;-77
2023/01/19 11:44:41;;;;;;;14.03;11.87;;;2.40;99.90;;;;;;5013697;28;20191;-77
2023/01/19 11:47:24;;;;;;;16.50;12.70;;;2.60;99.90;;;;;;4996984;28;20183;-77
2023/01/19 11:50:05;;;;;;;20.83;15.97;;;2.80;99.90;;;;;;5013819;28;20167;-77
2023/01/19 11:52:41;;;;;;;15.00;12.43;;;3.10;99.90;;;;;;5013680;28;20175;-77
2023/01/19 11:55:10;;;;;;;17.00;12.33;;;3.10;99.90;;;;;;5014308;28;20203;-77
2023/01/19 11:57:36;;;;;;;17.47;12.20;;;3.10;99.90;;;;;;4996936;28;20187;-82
2023/01/19 12:00:16;;;;;;;13.73;12.17;;;3.20;99.90;;;;;;5004508;28;20230;-77
2023/01/19 12:02:45;;;;;;;14.40;11.70;;;3.10;99.90;;;;;;5011843;28;20187;-76
2023/01/19 12:05:18;;;;;;;12.80;10.97;;;3.30;99.90;;;;;;5012994;28;20254;-76
2023/01/19 12:07:46;;;;;;;14.93;11.80;;;3.00;99.90;;;;;;4996369;28;20179;-76
2023/01/19 12:10:25;;;;;;;12.70;10.80;;;3.10;99.90;;;;;;4976696;28;20199;-76
2023/01/19 12:12:52;;;;;;;14.50;11.83;;;3.10;99.90;;;;;;4976558;28;20176;-76
2023/01/19 12:15:43;;;;;;;13.93;10.50;;;3.10;99.90;;;;;;4976250;28;20223;-76
2023/01/19 12:18:19;;;;;;;12.37;10.37;;;3.00;99.90;;;;;;4977438;28;20180;-76
2023/01/19 12:20:53;;;;;;;13.30;10.90;;;2.90;99.90;;;;;;4995714;28;20171;-76
2023/01/19 12:24:06;;;;;;;14.73;11.10;;;2.90;99.90;;;;;;5013486;28;20218;-76
2023/01/19 12:26:32;;;;;;;13.93;11.63;;;2.90;99.90;;;;;;4976522;28;20283;-76
2023/01/19 12:29:11;;;;;;;12.90;10.83;;;2.90;99.90;;;;;;4997583;28;20288;-78
2023/01/19 12:31:39;;;;;;;11.33;10.17;;;2.80;99.90;;;;;;4997667;28;20171;-76
2023/01/19 12:34:37;;;;;;;11.93;10.40;;;2.90;99.90;;;;;;4987689;28;20247;-76
2023/01/19 12:37:05;;;;;;;11.80;10.60;;;2.90;99.90;;;;;;4999936;28;20273;-76
2023/01/19 12:39:32;;;;;;;13.80;10.63;;;2.80;99.90;;;;;;4989351;28;20183;-76
2023/01/19 12:42:14;;;;;;;12.80;10.97;;;2.80;99.90;;;;;;4979884;28;20184;-76
2023/01/19 12:44:41;;;;;;;13.10;11.27;;;2.80;99.90;;;;;;5016961;28;20195;-76
2023/01/19 12:47:11;;;;;;;14.97;11.97;;;2.80;99.90;;;;;;5018539;28;20183;-76
2023/01/19 12:49:37;;;;;;;12.73;10.67;;;2.80;99.90;;;;;;5012381;28;20201;-76
2023/01/19 12:52:27;;;;;;;14.40;10.97;;;2.80;99.90;;;;;;5018822;28;20187;-76
2023/01/19 12:54:52;;;;;;;13.90;11.63;;;2.70;99.90;;;;;;4994171;28;20224;-76
2023/01/19 12:57:23;;;;;;;15.10;11.80;;;2.70;99.90;;;;;;4979668;28;20252;-76
2023/01/19 12:59:59;;;;;;;14.47;12.47;;;2.70;99.90;;;;;;4990639;28;20250;-76